createdAt,value
2019-05-17T00:00:41.881Z,85.47
2019-05-17T00:03:17.023Z,85.73
2019-05-17T00:05:50.136Z,85.80
2019-05-17T00:08:31.960Z,85.58
2019-05-17T00:10:57.526Z,85.48
2019-05-17T00:13:30.345Z,85.14
2019-05-17T00:16:03.477Z,85.24
2019-05-17T00:18:37.053Z,85.29
2019-05-17T00:21:10.056Z,85.19
2019-05-17T00:23:42.935Z,84.95
2019-05-17T00:26:16.442Z,85.06
2019-05-17T00:28:49.486Z,85.10
2019-05-17T00:31:22.401Z,85.06
2019-05-17T00:33:56.582Z,85.11
2019-05-17T00:36:29.877Z,85.29
2019-05-17T00:39:02.892Z,85.36
2019-05-17T00:41:37.471Z,85.30
2019-05-17T00:44:10.274Z,85.22
2019-05-17T00:46:43.091Z,85.12
2019-05-17T00:49:17.121Z,85.02
2019-05-17T00:51:50.230Z,85.21
2019-05-17T00:54:23.085Z,85.27
2019-05-17T00:56:56.699Z,85.28
2019-05-17T00:59:29.670Z,85.33
2019-05-17T01:02:02.554Z,85.44
2019-05-17T01:04:36.824Z,85.64
2019-05-17T01:07:09.943Z,85.67
2019-05-17T01:09:42.879Z,85.66
2019-05-17T01:12:16.425Z,85.08
2019-05-17T01:14:49.450Z,84.43
2019-05-17T01:17:22.305Z,83.99
2019-05-17T01:19:57.216Z,83.66
2019-05-17T01:22:29.747Z,83.73
2019-05-17T01:25:02.543Z,83.91
2019-05-17T01:27:37.994Z,84.10
2019-05-17T01:30:11.778Z,84.32
2019-05-17T01:32:46.456Z,84.20
2019-05-17T01:35:19.250Z,84.08
2019-05-17T01:37:52.092Z,84.26
2019-05-17T01:40:26.474Z,84.01
2019-05-17T01:42:59.445Z,84.09
2019-05-17T01:45:32.558Z,84.17
2019-05-17T01:48:07.436Z,84.41
2019-05-17T01:50:40.007Z,84.12
2019-05-17T01:53:12.931Z,83.87
2019-05-17T01:55:46.603Z,83.73
2019-05-17T01:58:19.690Z,83.87
2019-05-17T02:00:52.510Z,84.15
2019-05-17T02:03:26.779Z,84.21
2019-05-17T02:05:59.734Z,84.20
2019-05-17T02:08:32.570Z,84.06
2019-05-17T02:11:06.948Z,83.92
2019-05-17T02:13:39.902Z,84.01
2019-05-17T02:16:12.907Z,84.09
2019-05-17T02:18:46.622Z,84.12
2019-05-17T02:21:19.501Z,83.99
2019-05-17T02:23:52.364Z,84.00
2019-05-17T02:26:26.671Z,83.95
2019-05-17T02:29:01.427Z,83.80
2019-05-17T02:31:34.980Z,83.95
2019-05-17T02:34:08.027Z,83.97
2019-05-17T02:36:43.079Z,84.01
2019-05-17T02:39:15.382Z,84.19
2019-05-17T02:41:48.290Z,84.47
2019-05-17T02:44:23.584Z,84.68
2019-05-17T02:46:55.736Z,84.89
2019-05-17T02:49:28.570Z,84.98
2019-05-17T02:52:03.162Z,84.98
2019-05-17T02:54:35.890Z,84.99
2019-05-17T02:57:08.890Z,85.14
2019-05-17T02:59:43.303Z,85.39
2019-05-17T03:02:16.383Z,85.68
2019-05-17T03:04:52.402Z,86.03
2019-05-17T03:07:23.810Z,86.14
2019-05-17T03:10:12.436Z,86.31
2019-05-17T03:12:32.852Z,86.37
2019-05-17T03:15:07.359Z,86.43
2019-05-17T03:17:43.423Z,86.49
2019-05-17T03:20:16.549Z,86.43
2019-05-17T03:22:52.330Z,86.51
2019-05-17T03:25:24.126Z,86.59
2019-05-17T03:27:57.041Z,86.44
2019-05-17T03:30:35.563Z,86.47
2019-05-17T03:33:07.920Z,86.45
2019-05-17T03:35:45.158Z,86.40
2019-05-17T03:38:14.477Z,86.44
2019-05-17T03:41:07.352Z,86.39
2019-05-17T03:43:22.622Z,86.40
2019-05-17T03:45:56.763Z,86.41
2019-05-17T03:48:32.994Z,86.36
2019-05-17T03:51:04.106Z,86.40
2019-05-17T03:53:36.989Z,86.54
2019-05-17T03:56:13.161Z,86.51
2019-05-17T03:58:44.330Z,86.44
2019-05-17T04:01:17.217Z,86.50
2019-05-17T04:03:52.709Z,86.61
2019-05-17T04:06:24.750Z,86.80
2019-05-17T04:08:57.565Z,86.84
2019-05-17T04:11:35.538Z,86.87
2019-05-17T04:14:05.236Z,86.83
2019-05-17T04:16:38.193Z,86.81
2019-05-17T04:19:14.029Z,86.86
2019-05-17T04:21:46.785Z,86.84
2019-05-17T04:24:22.897Z,87.02
2019-05-17T04:26:54.266Z,87.16
2019-05-17T04:29:27.132Z,87.28
2019-05-17T04:32:03.532Z,87.41
2019-05-17T04:34:34.702Z,87.24
2019-05-17T04:37:08.625Z,87.08
2019-05-17T04:39:43.208Z,87.23
2019-05-17T04:42:16.171Z,87.04
2019-05-17T04:44:52.423Z,86.96
2019-05-17T04:47:23.938Z,86.97
2019-05-17T04:49:56.783Z,87.08
2019-05-17T04:52:33.327Z,86.85
2019-05-17T04:55:05.521Z,86.71
2019-05-17T04:57:38.321Z,86.82
2019-05-17T05:00:12.996Z,86.71
2019-05-17T05:02:46.294Z,86.17
2019-05-17T05:05:22.473Z,85.51
2019-05-17T05:07:54.031Z,85.22
2019-05-17T05:10:27.148Z,84.38
2019-05-17T05:13:02.793Z,83.93
2019-05-17T05:15:43.915Z,83.92
2019-05-17T05:18:17.906Z,84.13
2019-05-17T05:20:52.670Z,83.93
2019-05-17T05:23:25.253Z,83.34
2019-05-17T05:25:58.057Z,82.82
2019-05-17T05:28:31.718Z,82.17
2019-05-17T05:31:04.824Z,80.63
2019-05-17T05:33:37.653Z,80.06
2019-05-17T05:36:11.424Z,77.98
2019-05-17T05:38:44.311Z,77.74
2019-05-17T05:41:17.281Z,76.88
2019-05-17T05:43:52.458Z,76.11
2019-05-17T05:46:24.635Z,74.83
2019-05-17T05:48:57.465Z,74.97
2019-05-17T05:51:32.010Z,74.50
2019-05-17T05:54:05.934Z,73.26
2019-05-17T05:56:38.763Z,72.32
2019-05-17T05:59:12.254Z,71.82
2019-05-17T06:01:46.520Z,71.41
2019-05-17T06:04:19.342Z,69.99
2019-05-17T06:06:52.312Z,67.09
2019-05-17T06:09:25.159Z,66.09
2019-05-17T06:11:57.949Z,64.95
2019-05-17T06:14:32.338Z,63.79
2019-05-17T06:17:05.431Z,64.25
2019-05-17T06:19:38.258Z,64.18
2019-05-17T06:22:12.025Z,64.55
2019-05-17T06:24:45.445Z,66.57
2019-05-17T06:27:18.238Z,67.10
2019-05-17T06:29:51.619Z,68.41
2019-05-17T06:32:24.435Z,70.85
2019-05-17T06:34:57.229Z,71.34
2019-05-17T06:37:31.782Z,72.13
2019-05-17T06:40:05.050Z,71.76
2019-05-17T06:42:41.342Z,71.70
2019-05-17T06:45:13.929Z,71.58
2019-05-17T06:47:46.741Z,70.54
2019-05-17T06:50:19.855Z,71.15
2019-05-17T06:52:53.302Z,72.02
2019-05-17T06:55:27.255Z,72.43
2019-05-17T06:58:01.679Z,71.23
2019-05-17T07:00:34.822Z,71.39
2019-05-17T07:03:09.531Z,70.09
2019-05-17T07:05:44.256Z,69.69
2019-05-17T07:08:17.170Z,69.19
2019-05-17T07:10:50.305Z,68.56
2019-05-17T07:13:24.318Z,68.07
2019-05-17T07:15:59.527Z,68.80
2019-05-17T07:18:31.627Z,68.08
2019-05-17T07:21:04.423Z,68.08
2019-05-17T07:23:39.521Z,68.84
2019-05-17T07:26:12.134Z,67.98
2019-05-17T07:28:45.031Z,67.04
2019-05-17T07:31:21.232Z,68.40
2019-05-17T07:33:52.343Z,68.18
2019-05-17T07:36:25.211Z,68.56
2019-05-17T07:38:58.111Z,68.01
2019-05-17T07:41:32.915Z,67.68
2019-05-17T07:44:05.834Z,68.04
2019-05-17T07:46:40.225Z,68.13
2019-05-17T07:49:13.256Z,67.37
2019-05-17T07:51:46.048Z,67.75
2019-05-17T07:54:19.752Z,68.03
2019-05-17T07:56:53.957Z,67.95
2019-05-17T07:59:26.747Z,68.37
2019-05-17T08:01:59.784Z,69.50
2019-05-17T08:04:32.650Z,69.78
2019-05-17T08:07:05.858Z,69.07
2019-05-17T08:09:40.420Z,69.28
2019-05-17T08:12:13.378Z,69.04
2019-05-17T08:14:46.337Z,69.41
2019-05-17T08:17:19.822Z,68.84
2019-05-17T08:19:52.920Z,68.87
2019-05-17T08:22:25.713Z,67.77
2019-05-17T08:25:00.038Z,68.18
2019-05-17T08:27:33.439Z,68.54
2019-05-17T08:30:06.459Z,67.78
2019-05-17T08:32:40.136Z,67.23
2019-05-17T08:35:13.297Z,67.13
2019-05-17T08:37:46.127Z,67.36
2019-05-17T08:40:20.045Z,67.03
2019-05-17T08:42:53.138Z,67.01
2019-05-17T08:45:26.000Z,66.34
2019-05-17T08:48:00.339Z,66.71
2019-05-17T08:50:33.503Z,66.86
2019-05-17T08:53:06.464Z,68.14
2019-05-17T08:55:40.849Z,68.16
2019-05-17T08:58:13.826Z,68.15
2019-05-17T09:00:46.705Z,67.52
2019-05-17T09:03:19.757Z,67.55
2019-05-17T09:05:53.106Z,67.87
2019-05-17T09:08:26.080Z,67.29
2019-05-17T09:11:00.339Z,68.06
2019-05-17T09:13:33.577Z,67.38
2019-05-17T09:16:06.549Z,66.88
2019-05-17T09:18:39.597Z,66.53
2019-05-17T09:21:13.021Z,66.92
2019-05-17T09:23:45.916Z,66.13
2019-05-17T09:26:20.028Z,65.42
2019-05-17T09:28:53.076Z,65.99
2019-05-17T09:31:25.886Z,64.99
2019-05-17T09:34:00.269Z,64.37
2019-05-17T09:36:33.478Z,64.13
2019-05-17T09:39:09.463Z,63.89
2019-05-17T09:41:42.671Z,63.59
2019-05-17T09:44:16.525Z,63.58
2019-05-17T09:46:50.399Z,62.39
2019-05-17T09:49:23.378Z,63.09
2019-05-17T09:51:56.285Z,61.84
2019-05-17T09:54:41.466Z,61.58
2019-05-17T09:57:03.691Z,61.56
2019-05-17T09:59:36.625Z,62.68
2019-05-17T10:02:10.489Z,62.67
2019-05-17T10:04:43.455Z,63.02
2019-05-17T10:07:17.883Z,62.46
2019-05-17T10:09:51.856Z,62.22
2019-05-17T10:12:24.652Z,61.98
2019-05-17T10:14:57.479Z,61.73
2019-05-17T10:17:30.331Z,62.51
2019-05-17T10:20:03.192Z,61.89
2019-05-17T10:22:36.215Z,62.23
2019-05-17T10:25:10.039Z,61.16
2019-05-17T10:27:42.965Z,62.05
2019-05-17T10:30:17.288Z,62.75
2019-05-17T10:32:51.687Z,62.01
2019-05-17T10:35:24.592Z,61.78
2019-05-17T10:37:59.594Z,61.56
2019-05-17T10:40:32.791Z,61.67
2019-05-17T10:43:05.692Z,61.77
2019-05-17T10:45:40.084Z,61.02
2019-05-17T10:48:13.180Z,60.52
2019-05-17T10:50:46.307Z,61.20
2019-05-17T10:53:20.372Z,60.81
2019-05-17T10:55:54.812Z,61.29
2019-05-17T10:58:29.634Z,60.71
2019-05-17T11:01:02.390Z,59.56
2019-05-17T11:03:35.233Z,58.97
2019-05-17T11:06:10.714Z,57.36
2019-05-17T11:08:42.745Z,57.41
2019-05-17T11:11:15.884Z,59.26
2019-05-17T11:13:48.875Z,57.26
2019-05-17T11:16:21.764Z,57.60
2019-05-17T11:18:54.630Z,58.06
2019-05-17T11:21:27.432Z,57.92
2019-05-17T11:24:00.497Z,58.72
2019-05-17T11:26:34.410Z,59.07
2019-05-17T11:29:07.406Z,58.81
2019-05-17T11:31:40.345Z,58.39
2019-05-17T11:34:13.185Z,58.52
2019-05-17T11:36:46.045Z,58.46
2019-05-17T11:39:20.447Z,59.41
2019-05-17T11:41:53.447Z,58.83
2019-05-17T11:44:26.432Z,57.59
2019-05-17T11:46:59.350Z,57.15
2019-05-17T11:49:33.209Z,57.04
2019-05-17T11:52:06.206Z,57.52
2019-05-17T11:54:39.503Z,57.77
2019-05-17T11:57:12.555Z,57.15
2019-05-17T11:59:45.648Z,57.78
2019-05-17T12:02:21.388Z,56.21
2019-05-17T12:04:52.981Z,57.32
2019-05-17T12:07:25.947Z,58.17
2019-05-17T12:09:58.768Z,59.04
2019-05-17T12:12:31.590Z,59.38
2019-05-17T12:15:05.996Z,60.10
2019-05-17T12:17:38.938Z,60.18
2019-05-17T12:20:13.196Z,60.57
2019-05-17T12:22:46.030Z,61.37
2019-05-17T12:25:18.909Z,61.83
2019-05-17T12:27:51.863Z,63.08
2019-05-17T12:30:25.144Z,61.88
2019-05-17T12:32:58.037Z,63.08
2019-05-17T12:35:30.872Z,63.91
2019-05-17T12:38:03.767Z,65.21
2019-05-17T12:40:36.608Z,65.96
2019-05-17T12:43:09.498Z,67.45
2019-05-17T12:45:42.458Z,66.95
2019-05-17T12:48:16.321Z,67.16
2019-05-17T12:50:49.284Z,66.13
2019-05-17T12:53:22.134Z,65.80
2019-05-17T12:55:54.961Z,65.70
2019-05-17T12:58:27.800Z,64.53
2019-05-17T13:01:00.644Z,64.54
2019-05-17T13:03:33.422Z,63.66
2019-05-17T13:06:06.400Z,63.73
2019-05-17T13:08:39.549Z,63.73
2019-05-17T13:11:12.440Z,63.05
2019-05-17T13:13:45.312Z,63.60
2019-05-17T13:16:19.377Z,62.00
2019-05-17T13:18:52.333Z,60.20
2019-05-17T13:21:25.297Z,59.90
2019-05-17T13:23:58.311Z,59.65
2019-05-17T13:26:31.149Z,60.18
2019-05-17T13:29:04.056Z,59.18
2019-05-17T13:31:36.891Z,59.12
2019-05-17T13:34:09.724Z,58.74
2019-05-17T13:36:42.645Z,58.00
2019-05-17T13:39:15.667Z,58.35
2019-05-17T13:41:48.579Z,58.59
2019-05-17T13:44:21.497Z,57.77
2019-05-17T13:46:54.348Z,57.00
2019-05-17T13:49:27.462Z,57.50
2019-05-17T13:52:00.302Z,58.49
2019-05-17T13:54:33.318Z,58.84
2019-05-17T13:57:06.161Z,59.86
2019-05-17T13:59:39.044Z,58.78
2019-05-17T14:02:11.850Z,58.53
2019-05-17T14:04:44.738Z,57.33
2019-05-17T14:07:17.514Z,57.71
2019-05-17T14:09:50.427Z,58.07
2019-05-17T14:12:25.802Z,58.56
2019-05-17T14:15:00.149Z,59.44
2019-05-17T14:17:33.247Z,58.29
2019-05-17T14:20:07.308Z,58.46
2019-05-17T14:22:40.190Z,58.57
2019-05-17T14:25:13.299Z,57.48
2019-05-17T14:27:46.115Z,57.95
2019-05-17T14:30:19.439Z,56.80
2019-05-17T14:32:52.261Z,56.54
2019-05-17T14:35:25.154Z,56.47
2019-05-17T14:37:57.931Z,56.56
2019-05-17T14:41:04.277Z,57.35
2019-05-17T14:43:05.334Z,56.89
2019-05-17T14:45:38.481Z,57.90
2019-05-17T14:48:11.505Z,58.05
2019-05-17T14:50:44.490Z,57.71
2019-05-17T14:53:17.502Z,55.61
2019-05-17T14:55:50.307Z,55.65
2019-05-17T14:58:23.139Z,55.63
2019-05-17T15:00:56.047Z,56.06
2019-05-17T15:03:28.904Z,56.91
2019-05-17T15:06:01.748Z,56.54
2019-05-17T15:08:34.582Z,57.09
2019-05-17T15:11:07.557Z,56.87
2019-05-17T15:13:40.397Z,55.79
2019-05-17T15:16:13.321Z,56.52
2019-05-17T15:18:46.247Z,56.13
2019-05-17T15:21:19.441Z,56.76
2019-05-17T15:23:52.380Z,56.67
2019-05-17T15:26:25.139Z,58.00
2019-05-17T15:28:58.019Z,58.51
2019-05-17T15:31:31.794Z,58.87
2019-05-17T15:34:04.596Z,59.00
2019-05-17T15:36:37.468Z,58.38
2019-05-17T15:39:10.355Z,58.60
2019-05-17T15:41:43.197Z,56.06
2019-05-17T15:44:16.096Z,56.59
2019-05-17T15:46:49.072Z,57.40
2019-05-17T15:49:21.900Z,57.62
2019-05-17T15:51:54.864Z,56.73
2019-05-17T15:54:27.763Z,56.85
2019-05-17T15:57:00.560Z,55.26
2019-05-17T15:59:33.432Z,55.58
2019-05-17T16:02:06.360Z,55.33
2019-05-17T16:04:39.243Z,55.74
2019-05-17T16:07:12.097Z,56.25
2019-05-17T16:09:46.028Z,56.48
2019-05-17T16:12:19.092Z,56.72
2019-05-17T16:14:52.005Z,57.21
2019-05-17T16:17:24.897Z,57.51
2019-05-17T16:19:57.826Z,56.91
2019-05-17T16:22:30.669Z,56.66
2019-05-17T16:25:03.514Z,56.56
2019-05-17T16:27:36.409Z,56.94
2019-05-17T16:30:09.530Z,57.38
2019-05-17T16:32:42.361Z,57.27
2019-05-17T16:35:15.495Z,57.60
2019-05-17T16:37:48.386Z,57.16
2019-05-17T16:40:21.518Z,57.36
2019-05-17T16:42:54.311Z,56.96
2019-05-17T16:45:27.115Z,56.76
2019-05-17T16:47:59.914Z,55.92
2019-05-17T16:50:32.785Z,56.09
2019-05-17T16:53:07.120Z,56.12
2019-05-17T16:55:39.944Z,56.29
2019-05-17T16:58:12.887Z,56.76
2019-05-17T17:00:46.426Z,57.08
2019-05-17T17:03:19.420Z,57.90
2019-05-17T17:05:52.261Z,57.71
2019-05-17T17:08:25.120Z,57.87
2019-05-17T17:10:58.045Z,57.68
2019-05-17T17:13:33.072Z,58.09
2019-05-17T17:16:05.433Z,58.40
2019-05-17T17:18:38.373Z,58.90
2019-05-17T17:21:11.605Z,59.16
2019-05-17T17:23:44.441Z,59.07
2019-05-17T17:26:17.343Z,59.47
2019-05-17T17:28:50.242Z,59.58
2019-05-17T17:31:23.308Z,59.60
2019-05-17T17:33:56.282Z,59.69
2019-05-17T17:36:29.154Z,59.50
2019-05-17T17:39:02.088Z,59.76
2019-05-17T17:41:36.551Z,60.07
2019-05-17T17:44:09.725Z,59.99
2019-05-17T17:46:42.750Z,60.05
2019-05-17T17:49:16.742Z,60.31
2019-05-17T17:51:49.705Z,60.71
2019-05-17T17:54:23.619Z,60.67
2019-05-17T17:56:56.707Z,60.83
2019-05-17T17:59:29.620Z,60.84
2019-05-17T18:02:02.636Z,61.23
2019-05-17T18:04:35.544Z,61.59
2019-05-17T18:07:08.438Z,61.60
2019-05-17T18:09:41.484Z,61.72
2019-05-17T18:12:14.420Z,62.02
2019-05-17T18:14:47.521Z,62.19
2019-05-17T18:17:20.516Z,63.04
2019-05-17T18:19:53.526Z,63.77
2019-05-17T18:22:26.549Z,64.01
2019-05-17T18:24:59.561Z,64.50
2019-05-17T18:27:32.539Z,64.93
2019-05-17T18:30:06.318Z,65.33
2019-05-17T18:32:39.203Z,65.56
2019-05-17T18:35:12.323Z,65.71
2019-05-17T18:37:45.588Z,66.04
2019-05-17T18:40:27.420Z,66.47
2019-05-17T18:43:04.481Z,66.90
2019-05-17T18:45:38.324Z,67.25
2019-05-17T18:48:23.393Z,67.33
2019-05-17T18:50:57.784Z,67.80
2019-05-17T18:53:38.005Z,68.07
2019-05-17T18:56:17.667Z,68.56
2019-05-17T18:58:56.940Z,69.03
2019-05-17T19:01:33.363Z,69.54
2019-05-17T19:04:12.809Z,69.54
2019-05-17T19:06:46.521Z,70.08
2019-05-17T19:09:19.617Z,70.58
2019-05-17T19:11:52.481Z,70.57
2019-05-17T19:14:25.454Z,71.01
2019-05-17T19:16:58.430Z,71.25
2019-05-17T19:19:32.468Z,71.60
2019-05-17T19:22:05.424Z,71.80
2019-05-17T19:24:38.902Z,71.98
2019-05-17T19:27:11.851Z,72.04
2019-05-17T19:29:44.715Z,72.28
2019-05-17T19:32:17.541Z,72.56
2019-05-17T19:34:50.432Z,72.78
2019-05-17T19:37:23.394Z,72.96
2019-05-17T19:39:56.384Z,73.15
2019-05-17T19:42:29.207Z,73.42
2019-05-17T19:45:02.172Z,73.77
2019-05-17T19:47:36.495Z,74.04
2019-05-17T19:50:09.943Z,74.26
2019-05-17T19:52:42.827Z,74.49
2019-05-17T19:55:16.194Z,74.73
2019-05-17T19:57:49.116Z,74.96
2019-05-17T20:00:22.406Z,75.23
2019-05-17T20:02:56.037Z,75.19
2019-05-17T20:05:29.247Z,75.60
2019-05-17T20:08:02.977Z,75.93
2019-05-17T20:10:39.363Z,76.14
2019-05-17T20:13:12.312Z,76.34
2019-05-17T20:15:46.352Z,76.46
2019-05-17T20:18:19.233Z,76.68
2019-05-17T20:20:52.220Z,77.05
2019-05-17T20:23:25.148Z,77.20
2019-05-17T20:25:58.053Z,77.42
2019-05-17T20:28:30.981Z,77.67
2019-05-17T20:31:03.929Z,77.83
2019-05-17T20:33:37.172Z,78.28
2019-05-17T20:36:10.174Z,78.54
2019-05-17T20:38:42.976Z,78.29
2019-05-17T20:41:16.047Z,78.57
2019-05-17T20:43:48.966Z,78.70
2019-05-17T20:46:21.926Z,78.89
2019-05-17T20:48:54.803Z,79.30
2019-05-17T20:51:27.889Z,79.29
2019-05-17T20:54:00.776Z,79.54
2019-05-17T20:56:33.788Z,79.66
2019-05-17T20:59:06.704Z,79.73
2019-05-17T21:01:39.711Z,79.94
2019-05-17T21:04:12.624Z,80.18
2019-05-17T21:06:46.012Z,80.36
2019-05-17T21:09:19.008Z,80.44
2019-05-17T21:11:51.936Z,80.53
2019-05-17T21:14:24.891Z,80.70
2019-05-17T21:16:57.901Z,80.83
2019-05-17T21:19:30.913Z,80.81
2019-05-17T21:22:03.723Z,81.09
2019-05-17T21:24:36.583Z,81.24
2019-05-17T21:27:09.679Z,81.42
2019-05-17T21:29:42.625Z,81.67
2019-05-17T21:32:15.517Z,81.85
2019-05-17T21:34:48.442Z,82.00
2019-05-17T21:37:21.318Z,82.14
2019-05-17T21:39:54.104Z,81.99
2019-05-17T21:42:27.104Z,81.96
2019-05-17T21:44:59.947Z,82.15
2019-05-17T21:47:32.788Z,82.07
2019-05-17T21:50:05.929Z,82.01
2019-05-17T21:52:38.863Z,82.19
2019-05-17T21:55:13.272Z,82.25
2019-05-17T21:57:46.100Z,82.36
2019-05-17T22:00:59.473Z,82.45
2019-05-17T22:03:32.632Z,82.51
2019-05-17T22:06:05.631Z,82.52
2019-05-17T22:08:38.792Z,82.50
2019-05-17T22:11:11.758Z,82.52
2019-05-17T22:13:44.626Z,82.38
2019-05-17T22:16:20.182Z,82.39
2019-05-17T22:18:53.353Z,82.29
2019-05-17T22:21:26.297Z,82.21
2019-05-17T22:23:59.067Z,82.14
2019-05-17T22:26:31.880Z,82.07
2019-05-17T22:29:04.944Z,81.80
2019-05-17T22:31:39.024Z,81.67
2019-05-17T22:34:12.064Z,81.56
2019-05-17T22:36:44.963Z,81.70
2019-05-17T22:39:17.827Z,81.75
2019-05-17T22:41:50.702Z,82.25
2019-05-17T22:44:23.678Z,82.35
2019-05-17T22:46:56.588Z,82.49
2019-05-17T22:49:29.525Z,82.51
2019-05-17T22:52:02.549Z,82.43
2019-05-17T22:54:35.534Z,82.43
2019-05-17T22:57:08.391Z,82.27
2019-05-17T22:59:41.254Z,82.47
2019-05-17T23:02:14.161Z,82.25
2019-05-17T23:04:47.135Z,82.33
2019-05-17T23:07:20.157Z,82.61
2019-05-17T23:09:53.098Z,82.91
2019-05-17T23:12:25.954Z,83.60
2019-05-17T23:14:58.943Z,84.13
2019-05-17T23:17:31.920Z,84.41
2019-05-17T23:20:04.971Z,84.63
2019-05-17T23:22:37.912Z,84.69
2019-05-17T23:25:11.510Z,85.13
2019-05-17T23:27:44.470Z,85.26
2019-05-17T23:30:18.094Z,85.60
2019-05-17T23:32:51.023Z,85.89
2019-05-17T23:35:23.802Z,85.99
2019-05-17T23:37:57.053Z,86.10
2019-05-17T23:40:30.082Z,86.29
2019-05-17T23:43:02.892Z,86.43
2019-05-17T23:45:35.759Z,86.49
2019-05-17T23:48:08.595Z,86.51
2019-05-17T23:50:41.420Z,86.50
2019-05-17T23:53:14.231Z,86.47
2019-05-17T23:55:47.217Z,86.41
2019-05-17T23:58:20.073Z,86.53
